createdAt,value
2022-12-17T00:00:53.827Z,-4.70
2022-12-17T00:26:34.649Z,-4.90
2022-12-17T00:29:33.478Z,-4.80
2022-12-17T00:32:52.608Z,-4.90
2022-12-17T00:35:51.783Z,-5.00
2022-12-17T00:38:56.750Z,-5.00
2022-12-17T00:41:59.407Z,-4.90
2022-12-17T00:45:25.704Z,-4.80
2022-12-17T00:52:50.591Z,-4.80
2022-12-17T00:55:59.182Z,-4.90
2022-12-17T00:59:53.307Z,-4.90
2022-12-17T01:07:34.014Z,-4.80
2022-12-17T01:10:38.731Z,-4.90
2022-12-17T01:14:17.010Z,-4.90
2022-12-17T01:17:34.866Z,-4.90
2022-12-17T01:20:42.979Z,-5.10
2022-12-17T01:23:41.853Z,-4.90
2022-12-17T01:26:46.720Z,-5.00
2022-12-17T01:29:51.720Z,-5.10
2022-12-17T01:33:19.685Z,-5.10
2022-12-17T01:36:53.018Z,-5.10
2022-12-17T01:39:54.952Z,-5.10
2022-12-17T01:51:19.757Z,-5.10
2022-12-17T01:54:37.875Z,-5.30
2022-12-17T01:57:57.690Z,-5.30
2022-12-17T02:01:22.639Z,-5.20
2022-12-17T02:04:47.161Z,-5.20
2022-12-17T02:08:31.148Z,-5.10
2022-12-17T02:15:21.916Z,-5.20
2022-12-17T02:18:47.179Z,-5.00
2022-12-17T02:22:01.638Z,-5.00
2022-12-17T02:25:10.712Z,-5.10
2022-12-17T02:28:17.925Z,-5.20
2022-12-17T02:31:17.760Z,-5.10
2022-12-17T02:34:16.855Z,-5.20
2022-12-17T02:37:22.771Z,-5.20
2022-12-17T02:40:27.826Z,-5.20
2022-12-17T02:43:26.897Z,-5.10
2022-12-17T02:46:33.793Z,-5.10
2022-12-17T02:49:32.292Z,-5.10
2022-12-17T02:52:37.823Z,-5.10
2022-12-17T02:55:42.791Z,-5.00
2022-12-17T02:58:49.663Z,-5.00
2022-12-17T03:01:49.950Z,-4.90
2022-12-17T03:04:55.455Z,-4.80
2022-12-17T03:07:53.786Z,-5.00
2022-12-17T03:10:52.632Z,-5.00
2022-12-17T03:13:58.849Z,-5.10
2022-12-17T03:17:04.917Z,-5.10
2022-12-17T03:20:03.516Z,-5.10
2022-12-17T03:23:08.857Z,-5.00
2022-12-17T03:26:07.715Z,-5.00
2022-12-17T03:29:13.842Z,-4.90
2022-12-17T03:32:12.613Z,-4.90
2022-12-17T03:35:17.854Z,-4.90
2022-12-17T03:38:22.887Z,-4.80
2022-12-17T03:41:21.947Z,-4.80
2022-12-17T03:44:26.843Z,-4.80
2022-12-17T03:47:25.925Z,-4.80
2022-12-17T03:50:30.842Z,-4.80
2022-12-17T03:53:36.127Z,-4.80
2022-12-17T03:56:34.798Z,-4.80
2022-12-17T03:59:39.942Z,-4.90
2022-12-17T04:02:38.998Z,-5.00
2022-12-17T04:05:43.859Z,-5.00
2022-12-17T04:08:42.640Z,-5.00
2022-12-17T04:11:47.984Z,-4.90
2022-12-17T04:14:52.794Z,-4.90
2022-12-17T04:17:58.449Z,-5.00
2022-12-17T04:20:56.911Z,-5.00
2022-12-17T04:24:02.800Z,-5.00
2022-12-17T04:27:01.932Z,-4.90
2022-12-17T04:30:15.010Z,-5.00
2022-12-17T04:33:14.353Z,-4.90
2022-12-17T04:36:18.904Z,-4.90
2022-12-17T04:39:24.665Z,-4.90
2022-12-17T04:42:31.046Z,-4.90
2022-12-17T04:45:44.000Z,-4.90
2022-12-17T04:48:42.729Z,-4.90
2022-12-17T04:51:47.903Z,-5.00
2022-12-17T04:54:55.215Z,-5.00
2022-12-17T04:57:55.173Z,-5.00
2022-12-17T05:01:00.532Z,-5.00
2022-12-17T05:03:58.916Z,-5.00
2022-12-17T05:07:03.945Z,-5.00
2022-12-17T05:10:02.912Z,-5.00
2022-12-17T05:13:07.835Z,-5.00
2022-12-17T05:16:06.732Z,-5.00
2022-12-17T05:19:12.979Z,-5.00
2022-12-17T05:22:12.114Z,-5.00
2022-12-17T05:25:16.846Z,-5.00
2022-12-17T05:28:21.934Z,-5.00
2022-12-17T05:31:20.984Z,-5.00
2022-12-17T05:34:26.006Z,-5.10
2022-12-17T05:37:31.888Z,-5.20
2022-12-17T05:40:30.970Z,-5.30
2022-12-17T05:43:42.936Z,-5.30
2022-12-17T05:46:41.876Z,-5.20
2022-12-17T05:50:04.069Z,-5.20
2022-12-17T05:53:09.623Z,-5.10
2022-12-17T05:56:12.978Z,-5.10
2022-12-17T05:59:19.004Z,-5.00
2022-12-17T06:02:34.592Z,-5.00
2022-12-17T06:05:39.895Z,-5.00
2022-12-17T06:08:38.788Z,-5.00
2022-12-17T06:11:44.184Z,-5.10
2022-12-17T06:14:43.600Z,-5.20
2022-12-17T06:17:47.947Z,-5.30
2022-12-17T06:20:52.995Z,-5.20
2022-12-17T06:23:51.582Z,-5.30
2022-12-17T06:26:57.003Z,-5.40
2022-12-17T06:30:02.675Z,-5.40
2022-12-17T06:33:02.054Z,-5.40
2022-12-17T06:36:21.252Z,-5.30
2022-12-17T06:39:27.620Z,-5.30
2022-12-17T06:42:25.977Z,-5.20
2022-12-17T06:45:31.675Z,-5.20
2022-12-17T06:48:32.126Z,-5.10
2022-12-17T06:51:30.704Z,-5.10
2022-12-17T06:54:35.989Z,-5.20
2022-12-17T06:57:44.132Z,-5.10
2022-12-17T07:00:44.783Z,-5.10
2022-12-17T07:03:50.060Z,-5.10
2022-12-17T07:06:48.743Z,-5.10
2022-12-17T07:09:54.051Z,-5.10
2022-12-17T07:12:53.032Z,-5.10
2022-12-17T07:15:58.037Z,-5.20
2022-12-17T07:19:03.037Z,-5.30
2022-12-17T07:22:01.666Z,-5.50
2022-12-17T07:25:06.036Z,-5.40
2022-12-17T07:28:11.380Z,-5.30
2022-12-17T07:31:16.125Z,-5.20
2022-12-17T07:34:28.039Z,-5.10
2022-12-17T07:37:33.888Z,-5.10
2022-12-17T07:40:33.076Z,-5.20
2022-12-17T07:43:51.300Z,-5.20
2022-12-17T07:47:05.035Z,-5.10
2022-12-17T07:50:17.069Z,-5.00
2022-12-17T07:53:29.025Z,-5.00
2022-12-17T07:56:28.006Z,-4.90
2022-12-17T07:59:35.770Z,-4.90
2022-12-17T08:02:35.281Z,-4.90
2022-12-17T08:05:40.461Z,-4.90
2022-12-17T08:08:40.127Z,-5.00
2022-12-17T08:11:52.091Z,-5.00
2022-12-17T08:14:51.040Z,-5.10
2022-12-17T08:17:56.063Z,-5.10
2022-12-17T08:20:54.953Z,-5.10
2022-12-17T08:24:00.008Z,-5.10
2022-12-17T08:27:05.845Z,-5.00
2022-12-17T08:30:05.138Z,-5.00
2022-12-17T08:33:11.102Z,-4.90
2022-12-17T08:36:16.176Z,-4.90
2022-12-17T08:39:24.070Z,-4.90
2022-12-17T08:42:22.944Z,-4.80
2022-12-17T08:45:28.142Z,-4.70
2022-12-17T08:48:34.341Z,-4.60
2022-12-17T08:51:33.282Z,-4.50
2022-12-17T08:54:38.064Z,-4.50
2022-12-17T08:57:37.323Z,-4.40
2022-12-17T09:00:42.095Z,-4.40
2022-12-17T09:03:41.239Z,-4.40
2022-12-17T09:06:46.127Z,-4.40
2022-12-17T09:09:51.116Z,-4.50
2022-12-17T09:12:49.649Z,-4.50
2022-12-17T09:15:54.189Z,-4.40
2022-12-17T09:18:53.095Z,-4.40
2022-12-17T09:21:58.242Z,-4.30
2022-12-17T09:24:58.111Z,-4.40
2022-12-17T09:28:18.093Z,-4.40
2022-12-17T09:31:23.220Z,-4.30
2022-12-17T09:34:22.012Z,-4.30
2022-12-17T09:37:27.124Z,-4.30
2022-12-17T09:40:34.314Z,-4.40
2022-12-17T09:43:59.074Z,-4.40
2022-12-17T09:47:25.384Z,-4.30
2022-12-17T09:50:27.635Z,-4.30
2022-12-17T09:53:33.384Z,-4.20
2022-12-17T09:56:32.752Z,-4.20
2022-12-17T09:59:37.200Z,-4.30
2022-12-17T10:02:38.341Z,-4.20
2022-12-17T10:05:55.214Z,-4.20
2022-12-17T10:09:00.208Z,-4.20
2022-12-17T10:12:01.049Z,-4.10
2022-12-17T10:15:07.245Z,-4.10
2022-12-17T10:18:07.038Z,-4.10
2022-12-17T10:21:21.150Z,-4.10
2022-12-17T10:24:37.194Z,-4.10
2022-12-17T10:27:37.659Z,-4.00
2022-12-17T10:30:47.258Z,-4.10
2022-12-17T10:33:46.110Z,-4.10
2022-12-17T10:36:53.252Z,-4.10
2022-12-17T10:39:52.104Z,-4.10
2022-12-17T10:42:58.258Z,-4.00
2022-12-17T10:46:03.276Z,-4.00
2022-12-17T10:49:04.654Z,-3.90
2022-12-17T10:52:13.250Z,-3.70
2022-12-17T10:55:23.087Z,-3.70
2022-12-17T10:58:29.268Z,-3.60
2022-12-17T11:01:35.379Z,-3.60
2022-12-17T11:04:54.114Z,-3.50
2022-12-17T11:07:59.299Z,-3.50
2022-12-17T11:11:07.037Z,-3.40
2022-12-17T11:14:10.245Z,-3.40
2022-12-17T11:17:19.184Z,-3.40
2022-12-17T11:20:19.891Z,-3.40
2022-12-17T11:23:25.179Z,-3.50
2022-12-17T11:26:33.979Z,-3.60
2022-12-17T11:29:39.220Z,-3.70
2022-12-17T11:32:38.183Z,-3.80
2022-12-17T11:35:54.438Z,-3.80
2022-12-17T11:39:15.226Z,-4.00
2022-12-17T11:42:17.197Z,-3.90
2022-12-17T11:45:29.476Z,-4.00
2022-12-17T11:48:33.903Z,-4.00
2022-12-17T11:51:49.367Z,-4.00
2022-12-17T11:55:06.461Z,-4.00
2022-12-17T11:58:05.296Z,-4.00
2022-12-17T12:01:13.388Z,-4.00
2022-12-17T12:04:17.899Z,-4.00
2022-12-17T12:07:55.247Z,-4.10
2022-12-17T12:11:05.332Z,-4.00
2022-12-17T12:14:16.089Z,-4.00
2022-12-17T12:17:33.395Z,-4.00
2022-12-17T12:20:39.383Z,-4.00
2022-12-17T12:23:47.486Z,-4.00
2022-12-17T12:27:05.611Z,-4.10
2022-12-17T12:30:11.001Z,-4.10
2022-12-17T12:33:33.529Z,-4.10
2022-12-17T12:36:41.096Z,-4.20
2022-12-17T12:39:43.411Z,-4.30
2022-12-17T12:42:56.393Z,-4.30
2022-12-17T12:46:04.339Z,-4.30
2022-12-17T12:49:10.431Z,-4.40
2022-12-17T12:52:11.212Z,-4.50
2022-12-17T12:55:16.383Z,-4.50
2022-12-17T12:58:28.728Z,-4.40
2022-12-17T13:01:36.155Z,-4.50
2022-12-17T13:04:53.398Z,-4.60
2022-12-17T13:07:40.630Z,-4.60
2022-12-17T13:10:35.443Z,-4.80
2022-12-17T13:13:22.537Z,-4.90
2022-12-17T13:16:08.447Z,-4.90
2022-12-17T13:18:55.663Z,-4.90
2022-12-17T13:21:38.450Z,-4.80
2022-12-17T13:24:30.880Z,-4.80
2022-12-17T13:27:11.322Z,-4.80
2022-12-17T13:30:16.617Z,-4.70
2022-12-17T13:33:21.726Z,-4.70
2022-12-17T13:36:13.520Z,-4.70
2022-12-17T13:39:18.445Z,-4.70
2022-12-17T13:42:04.478Z,-4.80
2022-12-17T13:44:54.255Z,-4.90
2022-12-17T13:47:39.548Z,-4.90
2022-12-17T13:50:34.684Z,-4.90
2022-12-17T13:53:17.524Z,-4.90
2022-12-17T13:56:12.480Z,-5.00
2022-12-17T13:59:09.809Z,-4.90
2022-12-17T14:01:59.610Z,-4.90
2022-12-17T14:04:52.658Z,-4.90
2022-12-17T14:07:36.635Z,-5.00
2022-12-17T14:10:24.720Z,-4.90
2022-12-17T14:13:20.745Z,-5.00
2022-12-17T14:16:08.897Z,-5.00
2022-12-17T14:18:50.600Z,-5.00
2022-12-17T14:21:40.253Z,-5.00
2022-12-17T14:24:25.503Z,-5.10
2022-12-17T14:27:12.860Z,-5.10
2022-12-17T14:29:53.695Z,-5.10
2022-12-17T14:32:46.522Z,-5.10
2022-12-17T14:35:33.622Z,-5.20
2022-12-17T14:38:37.413Z,-5.20
2022-12-17T14:41:59.952Z,-5.20
2022-12-17T14:45:02.642Z,-5.20
2022-12-17T14:47:59.411Z,-5.20
2022-12-17T14:50:41.691Z,-5.10
2022-12-17T14:53:32.465Z,-5.10
2022-12-17T14:56:27.596Z,-5.10
2022-12-17T14:59:32.546Z,-5.10
2022-12-17T15:02:15.834Z,-5.10
2022-12-17T15:05:04.542Z,-5.20
2022-12-17T15:07:48.121Z,-5.20
2022-12-17T15:10:34.458Z,-5.20
2022-12-17T15:13:14.731Z,-5.20
2022-12-17T15:16:01.511Z,-5.20
2022-12-17T15:18:41.759Z,-5.10
2022-12-17T15:21:28.532Z,-5.00
2022-12-17T15:24:08.657Z,-5.00
2022-12-17T15:26:55.701Z,-5.00
2022-12-17T15:29:35.684Z,-5.00
2022-12-17T15:32:26.454Z,-5.00
2022-12-17T15:35:13.524Z,-5.00
2022-12-17T15:38:00.656Z,-5.20
2022-12-17T15:40:43.435Z,-5.20
2022-12-17T15:43:30.626Z,-5.20
2022-12-17T15:46:17.639Z,-5.10
2022-12-17T15:49:04.552Z,-5.10
2022-12-17T15:51:51.602Z,-5.20
2022-12-17T15:54:38.589Z,-5.10
2022-12-17T15:57:19.510Z,-5.00
2022-12-17T16:00:06.678Z,-4.90
2022-12-17T16:02:47.745Z,-4.90
2022-12-17T16:05:34.623Z,-4.90
2022-12-17T16:08:14.559Z,-4.90
2022-12-17T16:10:54.860Z,-5.00
2022-12-17T16:13:41.631Z,-4.90
2022-12-17T16:16:28.681Z,-4.90
2022-12-17T16:19:09.722Z,-4.90
2022-12-17T16:21:56.817Z,-4.90
2022-12-17T16:24:37.681Z,-4.90
2022-12-17T16:27:24.744Z,-4.90
2022-12-17T16:30:04.629Z,-4.90
2022-12-17T16:32:58.592Z,-4.90
2022-12-17T16:35:45.627Z,-4.90
2022-12-17T16:38:25.633Z,-4.90
2022-12-17T16:41:05.921Z,-4.90
2022-12-17T16:43:52.625Z,-5.00
2022-12-17T16:46:40.919Z,-5.00
2022-12-17T16:49:24.595Z,-5.10
2022-12-17T16:52:04.999Z,-5.10
2022-12-17T16:54:51.571Z,-5.10
2022-12-17T16:57:38.778Z,-5.20
2022-12-17T17:00:22.640Z,-5.10
2022-12-17T17:03:10.791Z,-5.10
2022-12-17T17:05:50.685Z,-5.10
2022-12-17T17:08:38.081Z,-5.10
2022-12-17T17:11:20.651Z,-5.20
2022-12-17T17:14:01.948Z,-5.20
2022-12-17T17:16:48.644Z,-5.10
2022-12-17T17:19:35.808Z,-5.20
2022-12-17T17:22:15.613Z,-5.10
2022-12-17T17:25:02.830Z,-5.10
2022-12-17T17:27:43.611Z,-5.10
2022-12-17T17:30:31.480Z,-5.10
2022-12-17T17:33:11.632Z,-5.10
2022-12-17T17:36:03.850Z,-5.00
2022-12-17T17:38:45.730Z,-5.00
2022-12-17T17:41:33.660Z,-5.00
2022-12-17T17:44:15.290Z,-5.00
2022-12-17T17:47:02.651Z,-5.00
2022-12-17T17:49:43.796Z,-5.00
2022-12-17T17:52:30.696Z,-5.00
2022-12-17T17:55:10.823Z,-5.00
2022-12-17T17:57:59.952Z,-5.00
2022-12-17T18:00:39.750Z,-5.00
2022-12-17T18:03:26.757Z,-5.00
2022-12-17T18:06:11.390Z,-5.00
2022-12-17T18:08:58.722Z,-5.00
2022-12-17T18:11:39.798Z,-5.00
2022-12-17T18:14:26.590Z,-5.00
2022-12-17T18:17:06.721Z,-5.00
2022-12-17T18:19:55.733Z,-5.20
2022-12-17T18:22:35.985Z,-5.10
2022-12-17T18:25:22.685Z,-5.10
2022-12-17T18:28:02.783Z,-5.20
2022-12-17T18:30:52.606Z,-5.20
2022-12-17T18:33:35.887Z,-5.30
2022-12-17T18:36:23.744Z,-5.30
2022-12-17T18:39:04.930Z,-5.30
2022-12-17T18:42:10.823Z,-5.30
2022-12-17T18:44:59.815Z,-5.30
2022-12-17T18:47:39.993Z,-5.30
2022-12-17T18:50:26.703Z,-5.30
2022-12-17T18:53:06.921Z,-5.30
2022-12-17T18:55:54.734Z,-5.40
2022-12-17T18:58:41.921Z,-5.40
2022-12-17T19:01:26.816Z,-5.40
2022-12-17T19:04:14.969Z,-5.40
2022-12-17T19:06:55.778Z,-5.40
2022-12-17T19:09:42.939Z,-5.30
2022-12-17T19:12:22.692Z,-5.30
2022-12-17T19:15:09.852Z,-5.30
2022-12-17T19:17:50.108Z,-5.50
2022-12-17T19:20:36.796Z,-5.40
2022-12-17T19:23:16.732Z,-5.40
2022-12-17T19:26:03.919Z,-5.40
2022-12-17T19:28:45.734Z,-5.40
2022-12-17T19:31:27.177Z,-5.30
2022-12-17T19:34:14.709Z,-5.20
2022-12-17T19:37:01.825Z,-5.10
2022-12-17T19:39:41.880Z,-5.10
2022-12-17T19:42:37.027Z,-5.10
2022-12-17T19:45:31.818Z,-5.10
2022-12-17T19:48:21.760Z,-5.00
2022-12-17T19:51:03.045Z,-5.00
2022-12-17T19:53:50.687Z,-5.10
2022-12-17T19:56:32.070Z,-5.20
2022-12-17T19:59:19.862Z,-5.10
2022-12-17T20:02:03.916Z,-5.10
2022-12-17T20:04:50.741Z,-5.10
2022-12-17T20:07:30.906Z,-5.10
2022-12-17T20:10:17.785Z,-5.10
2022-12-17T20:12:58.013Z,-5.10
2022-12-17T20:15:45.789Z,-5.20
2022-12-17T20:18:25.902Z,-5.20
2022-12-17T20:21:12.769Z,-5.30
2022-12-17T20:23:53.967Z,-5.30
2022-12-17T20:26:40.881Z,-5.30
2022-12-17T20:29:20.833Z,-5.20
2022-12-17T20:32:08.926Z,-5.10
2022-12-17T20:34:48.950Z,-5.00
2022-12-17T20:37:35.787Z,-5.00
2022-12-17T20:40:15.950Z,-4.90
2022-12-17T20:43:02.800Z,-4.90
2022-12-17T20:46:04.911Z,-4.80
2022-12-17T20:48:51.908Z,-4.80
2022-12-17T20:51:32.814Z,-4.80
2022-12-17T20:54:19.904Z,-4.80
2022-12-17T20:56:59.828Z,-4.70
2022-12-17T20:59:46.869Z,-4.60
2022-12-17T21:02:26.945Z,-4.60
2022-12-17T21:05:07.221Z,-4.50
2022-12-17T21:07:55.204Z,-4.50
2022-12-17T21:10:35.085Z,-4.50
2022-12-17T21:13:38.884Z,-4.50
2022-12-17T21:16:30.155Z,-4.50
2022-12-17T21:19:17.856Z,-4.50
2022-12-17T21:22:04.967Z,-4.50
2022-12-17T21:24:44.950Z,-4.40
2022-12-17T21:27:33.014Z,-4.40
2022-12-17T21:30:13.869Z,-4.30
2022-12-17T21:33:01.985Z,-4.30
2022-12-17T21:35:41.868Z,-4.30
2022-12-17T21:38:28.995Z,-4.20
2022-12-17T21:41:14.761Z,-4.20
2022-12-17T21:44:02.990Z,-4.20
2022-12-17T21:46:56.953Z,-4.20
2022-12-17T21:49:43.955Z,-4.10
2022-12-17T21:52:23.984Z,-4.10
2022-12-17T21:55:11.262Z,-4.00
2022-12-17T21:57:50.881Z,-4.00
2022-12-17T22:00:38.271Z,-4.00
2022-12-17T22:03:18.018Z,-4.00
2022-12-17T22:06:04.913Z,-4.10
2022-12-17T22:08:45.958Z,-4.20
2022-12-17T22:11:33.836Z,-4.10
2022-12-17T22:14:20.334Z,-4.00
2022-12-17T22:17:08.139Z,-4.00
2022-12-17T22:19:48.003Z,-4.00
2022-12-17T22:22:34.905Z,-4.00
2022-12-17T22:25:16.075Z,-4.00
2022-12-17T22:28:02.921Z,-4.00
2022-12-17T22:31:01.793Z,-4.00
2022-12-17T22:34:27.185Z,-4.00
2022-12-17T22:41:01.875Z,-4.00
2022-12-17T22:44:30.915Z,-4.00
2022-12-17T22:44:44.170Z,-4.10
2022-12-17T22:46:31.037Z,-4.00
2022-12-17T22:49:17.903Z,-4.10
2022-12-17T22:52:00.985Z,-4.20
2022-12-17T22:54:47.841Z,-4.20
2022-12-17T22:57:36.188Z,-4.20
2022-12-17T23:00:28.007Z,-4.30
2022-12-17T23:03:08.064Z,-4.40
2022-12-17T23:05:54.853Z,-4.50
2022-12-17T23:08:34.954Z,-4.50
2022-12-17T23:11:25.905Z,-4.60
2022-12-17T23:14:05.966Z,-4.70
2022-12-17T23:16:54.889Z,-4.70
2022-12-17T23:19:34.914Z,-4.90
2022-12-17T23:22:22.473Z,-4.80
2022-12-17T23:25:03.033Z,-4.90
2022-12-17T23:27:49.892Z,-4.90
2022-12-17T23:30:30.152Z,-5.00
2022-12-17T23:33:16.893Z,-4.90
2022-12-17T23:35:57.502Z,-4.90
2022-12-17T23:38:50.917Z,-4.90
2022-12-17T23:41:38.033Z,-4.90
2022-12-17T23:44:17.943Z,-4.90
2022-12-17T23:47:05.234Z,-4.80
2022-12-17T23:49:44.929Z,-5.00
2022-12-17T23:52:32.087Z,-5.20
2022-12-17T23:55:12.964Z,-5.50
2022-12-17T23:58:08.075Z,-5.60
